createdAt,value
2017-09-29T08:53:48.013Z,1020.74
2017-09-29T08:54:57.422Z,1020.71
2017-09-29T08:56:07.870Z,1020.68
2017-09-29T08:57:20.609Z,1020.71
2017-09-29T08:58:33.577Z,1020.7
2017-09-29T08:59:45.310Z,1020.69
2017-09-29T09:00:56.183Z,1020.68
2017-09-29T09:02:06.469Z,1020.65
2017-09-29T09:03:18.020Z,1020.63
2017-09-29T09:04:29.488Z,1020.68
2017-09-29T09:05:38.327Z,1020.6
2017-09-29T09:06:47.192Z,1020.59
2017-09-29T09:07:55.998Z,1020.58
2017-09-29T09:09:04.835Z,1020.55
2017-09-29T09:10:13.676Z,1020.57
2017-09-29T09:11:22.512Z,1020.53
2017-09-29T09:12:31.351Z,1020.55
2017-09-29T09:13:40.184Z,1020.57
2017-09-29T09:14:49.019Z,1020.5
2017-09-29T09:15:57.860Z,1020.51
2017-09-29T09:17:06.696Z,1020.51
2017-09-29T09:18:15.531Z,1020.5
2017-09-29T09:19:24.368Z,1020.5
2017-09-29T09:20:33.207Z,1020.47
2017-09-29T09:21:42.047Z,1020.47
2017-09-29T09:22:50.887Z,1020.45
2017-09-29T09:23:59.726Z,1020.43
2017-09-29T09:25:08.560Z,1020.42
2017-09-29T09:26:17.395Z,1020.43
2017-09-29T09:27:26.236Z,1020.37
2017-09-29T09:28:35.078Z,1020.4
2017-09-29T09:29:43.921Z,1020.4
2017-09-29T09:30:52.752Z,1020.4
2017-09-29T09:32:01.591Z,1020.42
2017-09-29T09:33:10.432Z,1020.39
2017-09-29T09:34:19.266Z,1020.37
2017-09-29T09:35:28.103Z,1020.38
2017-09-29T09:36:36.942Z,1020.36
2017-09-29T09:37:45.778Z,1020.41
2017-09-29T09:38:54.613Z,1020.35
2017-09-29T09:40:03.462Z,1020.34
2017-09-29T09:41:12.298Z,1020.29
2017-09-29T09:42:21.135Z,1020.38
2017-09-29T09:43:29.971Z,1020.37
2017-09-29T09:44:38.804Z,1020.34
2017-09-29T09:45:47.645Z,1020.35
2017-09-29T09:46:56.805Z,1020.33
2017-09-29T09:48:05.645Z,1020.33
2017-09-29T09:49:14.477Z,1020.3
2017-09-29T09:50:23.314Z,1020.38
2017-09-29T09:51:32.152Z,1020.35
2017-09-29T09:52:40.986Z,1020.29
2017-09-29T09:53:49.827Z,1020.34
2017-09-29T09:54:58.668Z,1020.23
2017-09-29T09:56:07.507Z,1020.28
2017-09-29T09:57:16.348Z,1020.22
2017-09-29T09:58:25.185Z,1020.24
2017-09-29T09:59:34.023Z,1020.23
2017-09-29T10:00:42.863Z,1020.21
2017-09-29T10:01:51.701Z,1020.26
2017-09-29T10:03:00.537Z,1020.24
2017-09-29T10:04:09.377Z,1020.22
2017-09-29T10:05:18.212Z,1020.22
2017-09-29T10:06:27.047Z,1020.24
2017-09-29T10:07:35.889Z,1020.21
2017-09-29T10:08:44.734Z,1020.23
2017-09-29T10:09:53.891Z,1020.22
2017-09-29T10:11:02.735Z,1020.15
2017-09-29T10:12:11.571Z,1020.17
2017-09-29T10:13:20.412Z,1020.13
2017-09-29T10:14:29.248Z,1020.13
2017-09-29T10:15:38.087Z,1020.15
2017-09-29T10:16:46.925Z,1020.15
2017-09-29T10:17:55.761Z,1020.17
2017-09-29T10:19:04.597Z,1020.1
2017-09-29T10:20:13.438Z,1020.12
2017-09-29T10:21:22.280Z,1020.12
2017-09-29T10:22:31.117Z,1020.13
2017-09-29T10:23:39.957Z,1020.11
2017-09-29T10:24:48.799Z,1020.08
2017-09-29T10:25:57.637Z,1020.1
2017-09-29T10:27:06.475Z,1020.05
2017-09-29T10:28:15.313Z,1020.06
2017-09-29T10:29:24.156Z,1020.06
2017-09-29T10:30:32.995Z,1020.04
2017-09-29T10:31:41.831Z,1019.98
2017-09-29T10:32:50.690Z,1020.01
2017-09-29T10:33:59.512Z,1019.99
2017-09-29T10:35:08.349Z,1020
2017-09-29T10:36:17.187Z,1019.99
2017-09-29T10:37:26.351Z,1019.99
2017-09-29T10:38:35.185Z,1019.99
2017-09-29T10:39:44.022Z,1019.99
2017-09-29T10:40:52.859Z,1019.93
2017-09-29T10:42:01.700Z,1019.97
2017-09-29T10:43:10.543Z,1019.92
2017-09-29T10:44:19.377Z,1019.98
2017-09-29T10:45:28.215Z,1019.98
2017-09-29T10:46:37.055Z,1019.92
2017-09-29T10:47:45.890Z,1019.91
2017-09-29T10:48:54.728Z,1019.86
2017-09-29T10:50:03.571Z,1019.86
2017-09-29T10:51:12.413Z,1019.88
2017-09-29T10:52:21.254Z,1019.87
2017-09-29T10:53:30.090Z,1019.89
2017-09-29T10:54:38.928Z,1019.85
2017-09-29T10:55:47.769Z,1019.86
2017-09-29T10:56:56.608Z,1019.84
2017-09-29T10:58:05.447Z,1019.88
2017-09-29T10:59:14.291Z,1019.82
2017-09-29T11:00:23.126Z,1019.81
2017-09-29T11:01:31.961Z,1019.87
2017-09-29T11:02:40.801Z,1019.84
2017-09-29T11:03:49.638Z,1019.81
2017-09-29T11:04:58.481Z,1019.84
2017-09-29T11:06:07.318Z,1019.82
2017-09-29T11:07:16.152Z,1019.8
2017-09-29T11:08:24.995Z,1019.75
2017-09-29T11:09:33.832Z,1019.77
2017-09-29T11:10:42.672Z,1019.77
2017-09-29T11:11:51.512Z,1019.76
2017-09-29T11:13:00.353Z,1019.76
2017-09-29T11:14:09.185Z,1019.74
2017-09-29T11:15:18.024Z,1019.74
2017-09-29T11:16:26.863Z,1019.71
2017-09-29T11:17:35.703Z,1019.68
2017-09-29T11:18:44.539Z,1019.72
2017-09-29T11:19:53.376Z,1019.69
2017-09-29T11:21:02.216Z,1019.69
2017-09-29T11:22:11.055Z,1019.61
2017-09-29T11:23:19.892Z,1019.66
2017-09-29T11:24:28.735Z,1019.58
2017-09-29T11:25:37.902Z,1019.64
2017-09-29T11:26:46.742Z,1019.6
2017-09-29T11:27:55.579Z,1019.57
2017-09-29T11:29:04.421Z,1019.57
2017-09-29T11:30:13.261Z,1019.56
2017-09-29T11:31:22.099Z,1019.51
2017-09-29T11:32:30.937Z,1019.61
2017-09-29T11:33:39.778Z,1019.55
2017-09-29T11:34:48.620Z,1019.56
2017-09-29T11:35:57.455Z,1019.57
2017-09-29T11:37:06.293Z,1019.54
2017-09-29T11:38:15.137Z,1019.52
2017-09-29T11:39:23.971Z,1019.53
2017-09-29T11:40:32.814Z,1019.55
2017-09-29T11:41:41.652Z,1019.49
2017-09-29T11:42:50.811Z,1019.42
2017-09-29T11:43:59.649Z,1019.43
2017-09-29T11:45:08.492Z,1019.42
2017-09-29T11:46:17.329Z,1019.43
2017-09-29T11:47:26.171Z,1019.47
2017-09-29T11:48:35.007Z,1019.39
2017-09-29T11:49:43.844Z,1019.4
2017-09-29T11:50:52.691Z,1019.41
2017-09-29T11:52:01.532Z,1019.41
2017-09-29T11:53:10.367Z,1019.44
2017-09-29T11:54:19.205Z,1019.45
2017-09-29T11:55:28.041Z,1019.4
2017-09-29T11:56:36.878Z,1019.39
2017-09-29T11:57:46.045Z,1019.41
2017-09-29T11:58:54.889Z,1019.37
2017-09-29T12:00:03.732Z,1019.35
2017-09-29T12:01:12.573Z,1019.33
2017-09-29T12:02:21.413Z,1019.25
2017-09-29T12:03:30.248Z,1019.36
2017-09-29T12:04:39.089Z,1019.35
2017-09-29T12:05:47.931Z,1019.35
2017-09-29T12:06:56.768Z,1019.34
2017-09-29T12:08:05.607Z,1019.32
2017-09-29T12:09:14.446Z,1019.3
2017-09-29T12:10:23.292Z,1019.35
2017-09-29T12:11:32.131Z,1019.32
2017-09-29T12:12:40.974Z,1019.25
2017-09-29T12:13:49.808Z,1019.26
2017-09-29T12:14:58.643Z,1019.3
2017-09-29T12:16:07.807Z,1019.29
2017-09-29T12:17:16.648Z,1019.28
2017-09-29T12:18:25.491Z,1019.28
2017-09-29T12:19:34.328Z,1019.3
2017-09-29T12:20:43.166Z,1019.24
2017-09-29T12:21:52.005Z,1019.31
2017-09-29T12:23:00.845Z,1019.27
2017-09-29T12:24:10.009Z,1019.34
2017-09-29T12:25:18.848Z,1019.3
2017-09-29T12:26:27.687Z,1019.31
2017-09-29T12:27:36.854Z,1019.29
2017-09-29T12:28:45.694Z,1019.28
2017-09-29T12:29:54.541Z,1019.27
2017-09-29T12:31:03.379Z,1019.24
2017-09-29T12:32:12.223Z,1019.28
2017-09-29T12:33:21.062Z,1019.28
2017-09-29T12:34:29.905Z,1019.28
2017-09-29T12:35:38.745Z,1019.32
2017-09-29T12:36:47.582Z,1019.33
2017-09-29T12:37:56.418Z,1019.26
2017-09-29T12:39:05.261Z,1019.28
2017-09-29T12:40:14.103Z,1019.33
2017-09-29T12:41:22.943Z,1019.32
2017-09-29T12:42:31.784Z,1019.29
2017-09-29T12:43:40.621Z,1019.23
2017-09-29T12:44:49.461Z,1019.29
2017-09-29T12:45:58.297Z,1019.2
2017-09-29T12:47:07.141Z,1019.22
2017-09-29T12:48:15.981Z,1019.25
2017-09-29T12:49:24.816Z,1019.26
2017-09-29T12:50:33.656Z,1019.2
2017-09-29T12:51:42.491Z,1019.2
2017-09-29T12:52:51.330Z,1019.22
2017-09-29T12:54:00.181Z,1019.16
2017-09-29T12:55:09.011Z,1019.12
2017-09-29T12:56:17.850Z,1019.15
2017-09-29T12:57:26.695Z,1019.14
2017-09-29T12:58:35.870Z,1019.07
2017-09-29T12:59:44.707Z,1019.06
2017-09-29T13:00:53.547Z,1019.12
2017-09-29T13:02:02.391Z,1019.07
2017-09-29T13:03:11.233Z,1019.06
2017-09-29T13:04:20.071Z,1019.06
2017-09-29T13:05:28.913Z,1019.07
2017-09-29T13:06:37.753Z,1019.1
2017-09-29T13:07:46.594Z,1019.09
2017-09-29T13:08:55.432Z,1019.06
2017-09-29T13:10:04.270Z,1019.05
2017-09-29T13:11:13.124Z,1019.1
2017-09-29T13:12:21.950Z,1019.05
2017-09-29T13:13:30.792Z,1019.05
2017-09-29T13:14:39.630Z,1019.05
2017-09-29T13:15:48.473Z,1018.98
2017-09-29T13:16:57.306Z,1019.03
2017-09-29T13:18:06.147Z,1019.05
2017-09-29T13:19:14.990Z,1019.08
2017-09-29T13:20:23.827Z,1019.06
2017-09-29T13:21:32.665Z,1019.09
2017-09-29T13:22:41.510Z,1019.03
2017-09-29T13:23:50.348Z,1019.02
2017-09-29T13:24:59.192Z,1019.09
2017-09-29T13:26:08.035Z,1019.03
2017-09-29T13:27:16.869Z,1019.03
2017-09-29T13:28:25.706Z,1019.06
2017-09-29T13:29:34.549Z,1018.99
2017-09-29T13:30:43.390Z,1019
2017-09-29T13:31:52.237Z,1018.94
2017-09-29T13:33:01.071Z,1018.98
2017-09-29T13:34:09.916Z,1018.94
2017-09-29T13:35:18.757Z,1018.98
2017-09-29T13:36:27.600Z,1018.98
2017-09-29T13:37:36.778Z,1018.95
2017-09-29T13:38:45.619Z,1018.95
2017-09-29T13:39:54.458Z,1018.9
2017-09-29T13:41:03.293Z,1018.91
2017-09-29T13:42:12.134Z,1018.92
2017-09-29T13:43:20.977Z,1018.91
2017-09-29T13:44:29.817Z,1018.95
2017-09-29T13:45:38.656Z,1018.86
2017-09-29T13:46:47.818Z,1018.91
2017-09-29T13:47:56.657Z,1018.9
2017-09-29T13:49:05.497Z,1018.87
2017-09-29T13:50:14.342Z,1018.87
2017-09-29T13:51:23.188Z,1018.89
2017-09-29T13:52:32.031Z,1018.86
2017-09-29T13:53:41.198Z,1018.89
2017-09-29T13:54:50.037Z,1018.86
2017-09-29T13:55:58.870Z,1018.87
2017-09-29T13:57:07.713Z,1018.85
2017-09-29T13:58:16.557Z,1018.86
2017-09-29T13:59:25.399Z,1018.85
2017-09-29T14:00:34.263Z,1018.85
2017-09-29T14:01:43.078Z,1018.83
2017-09-29T14:02:51.921Z,1018.83
2017-09-29T14:04:01.087Z,1018.79
2017-09-29T14:05:09.930Z,1018.82
2017-09-29T14:06:18.772Z,1018.78
2017-09-29T14:07:27.610Z,1018.81
2017-09-29T14:08:36.449Z,1018.82
2017-09-29T14:09:45.286Z,1018.77
2017-09-29T14:10:54.130Z,1018.8
2017-09-29T14:12:02.966Z,1018.81
2017-09-29T14:13:11.805Z,1018.82
2017-09-29T14:14:20.644Z,1018.76
2017-09-29T14:15:29.487Z,1018.77
2017-09-29T14:16:38.329Z,1018.72
2017-09-29T14:17:47.490Z,1018.73
2017-09-29T14:18:56.332Z,1018.67
2017-09-29T14:20:05.172Z,1018.73
2017-09-29T14:21:14.017Z,1018.74
2017-09-29T14:22:22.850Z,1018.71
2017-09-29T14:23:31.686Z,1018.69
2017-09-29T14:24:40.528Z,1018.7
2017-09-29T14:25:49.371Z,1018.69
2017-09-29T14:26:58.212Z,1018.7
2017-09-29T14:28:07.053Z,1018.65
2017-09-29T14:29:15.890Z,1018.7
2017-09-29T14:30:24.726Z,1018.63
2017-09-29T14:31:33.573Z,1018.65
2017-09-29T14:32:42.414Z,1018.62
2017-09-29T14:33:51.254Z,1018.63
2017-09-29T14:35:00.096Z,1018.63
2017-09-29T14:36:08.934Z,1018.57
2017-09-29T14:37:17.773Z,1018.61
2017-09-29T14:38:26.615Z,1018.6
2017-09-29T14:39:35.459Z,1018.59
2017-09-29T14:40:44.295Z,1018.58
2017-09-29T14:41:53.457Z,1018.58
2017-09-29T14:43:02.298Z,1018.63
2017-09-29T14:44:11.463Z,1018.58
2017-09-29T14:45:20.308Z,1018.56
2017-09-29T14:46:29.148Z,1018.61
2017-09-29T14:47:37.993Z,1018.56
2017-09-29T14:48:46.830Z,1018.6
2017-09-29T14:49:55.670Z,1018.58
2017-09-29T14:51:04.511Z,1018.55
2017-09-29T14:52:13.354Z,1018.54
2017-09-29T14:53:22.194Z,1018.58
2017-09-29T14:54:31.039Z,1018.59
2017-09-29T14:55:39.880Z,1018.54
2017-09-29T14:56:48.716Z,1018.57
2017-09-29T14:57:57.556Z,1018.56
2017-09-29T14:59:06.391Z,1018.56
2017-09-29T15:00:15.226Z,1018.57
2017-09-29T15:01:24.068Z,1018.57
2017-09-29T15:02:32.907Z,1018.58
2017-09-29T15:03:41.751Z,1018.61
2017-09-29T15:04:50.589Z,1018.54
2017-09-29T15:05:59.754Z,1018.55
2017-09-29T15:07:08.590Z,1018.54
2017-09-29T15:08:17.432Z,1018.54
2017-09-29T15:09:26.272Z,1018.56
2017-09-29T15:10:35.114Z,1018.47
2017-09-29T15:11:43.953Z,1018.53
2017-09-29T15:12:52.796Z,1018.47
2017-09-29T15:14:01.635Z,1018.5
2017-09-29T15:15:10.474Z,1018.47
2017-09-29T15:16:19.641Z,1018.51
2017-09-29T15:17:28.482Z,1018.46
2017-09-29T15:18:37.321Z,1018.47
2017-09-29T15:19:46.165Z,1018.56
2017-09-29T15:20:55.003Z,1018.51
2017-09-29T15:22:03.846Z,1018.51
2017-09-29T15:23:12.686Z,1018.53
2017-09-29T15:24:21.524Z,1018.55
2017-09-29T15:25:30.358Z,1018.54
2017-09-29T15:26:39.198Z,1018.54
2017-09-29T15:27:48.033Z,1018.54
2017-09-29T15:28:56.871Z,1018.53
2017-09-29T15:30:05.713Z,1018.53
2017-09-29T15:31:14.550Z,1018.55
2017-09-29T15:32:23.392Z,1018.55
2017-09-29T15:33:32.231Z,1018.55
2017-09-29T15:34:41.070Z,1018.56
2017-09-29T15:35:49.908Z,1018.54
2017-09-29T15:36:59.069Z,1018.54
2017-09-29T15:38:07.911Z,1018.55
2017-09-29T15:39:16.749Z,1018.57
2017-09-29T15:40:25.593Z,1018.57
2017-09-29T15:41:34.431Z,1018.59
2017-09-29T15:42:43.595Z,1018.62
2017-09-29T15:43:52.437Z,1018.55
2017-09-29T15:45:01.273Z,1018.58
2017-09-29T15:46:10.109Z,1018.6
2017-09-29T15:47:18.953Z,1018.57
2017-09-29T15:48:27.796Z,1018.63
2017-09-29T15:49:36.635Z,1018.66
2017-09-29T15:50:45.495Z,1018.63
2017-09-29T15:51:54.311Z,1018.6
2017-09-29T15:53:03.153Z,1018.62
2017-09-29T15:54:11.991Z,1018.6
2017-09-29T15:55:20.833Z,1018.67
2017-09-29T15:56:29.673Z,1018.64
2017-09-29T15:57:38.517Z,1018.65
2017-09-29T15:58:47.354Z,1018.65
2017-09-29T15:59:56.196Z,1018.67
2017-09-29T16:01:05.042Z,1018.64
2017-09-29T16:02:13.879Z,1018.64
2017-09-29T16:03:22.717Z,1018.63
2017-09-29T16:04:31.555Z,1018.63
2017-09-29T16:05:40.392Z,1018.66
2017-09-29T16:06:49.232Z,1018.67
2017-09-29T16:07:58.077Z,1018.67
2017-09-29T16:09:06.920Z,1018.67
2017-09-29T16:10:15.758Z,1018.71
2017-09-29T16:11:24.600Z,1018.64
2017-09-29T16:12:33.438Z,1018.65
2017-09-29T16:13:42.283Z,1018.65
2017-09-29T16:14:51.113Z,1018.62
2017-09-29T16:15:59.957Z,1018.64
2017-09-29T16:17:08.799Z,1018.58
2017-09-29T16:18:17.638Z,1018.66
2017-09-29T16:19:26.478Z,1018.64
2017-09-29T16:20:35.315Z,1018.57
2017-09-29T16:21:44.159Z,1018.65
2017-09-29T16:22:53.004Z,1018.65
2017-09-29T16:24:01.835Z,1018.68
2017-09-29T16:25:10.675Z,1018.7
2017-09-29T16:26:19.870Z,1018.71
2017-09-29T16:27:29.030Z,1018.71
2017-09-29T16:28:37.872Z,1018.71
2017-09-29T16:29:46.717Z,1018.7
2017-09-29T16:30:55.554Z,1018.77
2017-09-29T16:32:04.390Z,1018.8
2017-09-29T16:33:13.231Z,1018.78
2017-09-29T16:34:22.069Z,1018.78
2017-09-29T16:35:30.913Z,1018.83
2017-09-29T16:36:39.750Z,1018.78
2017-09-29T16:37:48.909Z,1018.8
2017-09-29T16:38:57.751Z,1018.79
2017-09-29T16:40:06.590Z,1018.82
2017-09-29T16:41:15.428Z,1018.81
2017-09-29T16:42:24.271Z,1018.81
2017-09-29T16:43:33.109Z,1018.84
2017-09-29T16:44:41.945Z,1018.82
2017-09-29T16:45:50.786Z,1018.85
2017-09-29T16:46:59.623Z,1018.85
2017-09-29T16:48:08.466Z,1018.91
2017-09-29T16:49:17.302Z,1018.89
2017-09-29T16:50:26.140Z,1018.89
2017-09-29T16:51:34.984Z,1018.94
2017-09-29T16:52:43.822Z,1018.93
2017-09-29T16:53:52.664Z,1018.95
2017-09-29T16:55:01.503Z,1019
2017-09-29T16:56:10.344Z,1018.98
2017-09-29T16:57:19.175Z,1018.97
2017-09-29T16:58:28.016Z,1018.99
2017-09-29T16:59:36.857Z,1018.97
2017-09-29T17:00:45.697Z,1018.99
2017-09-29T17:01:54.536Z,1019.03
2017-09-29T17:03:03.375Z,1019.03
2017-09-29T17:04:12.214Z,1019.05
2017-09-29T17:05:21.376Z,1019.08
2017-09-29T17:06:30.215Z,1019.11
2017-09-29T17:07:39.051Z,1019.11
2017-09-29T17:08:47.902Z,1019.08
2017-09-29T17:09:57.053Z,1019.1
2017-09-29T17:11:05.892Z,1019.04
2017-09-29T17:12:14.738Z,1019.12
2017-09-29T17:13:23.577Z,1019.11
2017-09-29T17:14:32.414Z,1019.14
2017-09-29T17:15:41.248Z,1019.18
2017-09-29T17:16:50.087Z,1019.2
2017-09-29T17:17:58.929Z,1019.17
2017-09-29T17:19:07.770Z,1019.14
2017-09-29T17:20:16.613Z,1019.26
2017-09-29T17:21:25.450Z,1019.2
2017-09-29T17:22:34.291Z,1019.21
2017-09-29T17:23:43.132Z,1019.26
2017-09-29T17:24:51.970Z,1019.27
2017-09-29T17:26:00.812Z,1019.26
2017-09-29T17:27:09.653Z,1019.3
2017-09-29T17:28:18.826Z,1019.31
2017-09-29T17:29:27.656Z,1019.28
2017-09-29T17:30:36.498Z,1019.28
2017-09-29T17:31:45.337Z,1019.28
2017-09-29T17:32:54.178Z,1019.27
2017-09-29T17:34:03.022Z,1019.26
2017-09-29T17:35:11.858Z,1019.27
2017-09-29T17:36:21.016Z,1019.24
2017-09-29T17:37:29.855Z,1019.28
2017-09-29T17:38:38.696Z,1019.22
2017-09-29T17:39:47.531Z,1019.25
2017-09-29T17:40:56.377Z,1019.25
2017-09-29T17:42:05.217Z,1019.26
2017-09-29T17:43:14.054Z,1019.26
2017-09-29T17:44:22.895Z,1019.27
2017-09-29T17:45:31.742Z,1019.28
2017-09-29T17:46:40.578Z,1019.27
2017-09-29T17:47:49.419Z,1019.25
2017-09-29T17:48:58.257Z,1019.2
2017-09-29T17:50:07.094Z,1019.23
2017-09-29T17:51:15.939Z,1019.25
2017-09-29T17:52:24.782Z,1019.21
2017-09-29T17:53:33.611Z,1019.2
2017-09-29T17:54:42.450Z,1019.22
2017-09-29T17:55:51.290Z,1019.25
2017-09-29T17:57:00.133Z,1019.23
2017-09-29T17:58:08.969Z,1019.22
2017-09-29T17:59:17.813Z,1019.19
2017-09-29T18:00:26.651Z,1019.17
2017-09-29T18:01:35.492Z,1019.21
2017-09-29T18:02:44.333Z,1019.17
2017-09-29T18:03:53.171Z,1019.23
2017-09-29T18:05:02.012Z,1019.21
2017-09-29T18:06:10.852Z,1019.23
2017-09-29T18:07:19.693Z,1019.18
2017-09-29T18:08:28.530Z,1019.18
2017-09-29T18:09:37.694Z,1019.21
2017-09-29T18:10:46.530Z,1019.17
2017-09-29T18:11:55.367Z,1019.2
2017-09-29T18:13:04.208Z,1019.19
2017-09-29T18:14:13.040Z,1019.21
2017-09-29T18:15:21.875Z,1019.17
2017-09-29T18:16:30.715Z,1019.19
2017-09-29T18:17:39.557Z,1019.15
2017-09-29T18:18:48.397Z,1019.13
2017-09-29T18:19:57.239Z,1019.17
2017-09-29T18:21:06.075Z,1019.16
2017-09-29T18:22:14.908Z,1019.23
2017-09-29T18:23:23.752Z,1019.21
2017-09-29T18:24:32.911Z,1019.21
2017-09-29T18:25:41.754Z,1019.2
2017-09-29T18:26:50.590Z,1019.24
2017-09-29T18:27:59.429Z,1019.23
2017-09-29T18:29:08.271Z,1019.2
2017-09-29T18:30:17.109Z,1019.2
2017-09-29T18:31:25.948Z,1019.22
2017-09-29T18:32:34.788Z,1019.26
2017-09-29T18:33:43.629Z,1019.27
2017-09-29T18:34:52.460Z,1019.27
2017-09-29T18:36:01.301Z,1019.25
2017-09-29T18:37:10.142Z,1019.23
2017-09-29T18:38:18.983Z,1019.26
2017-09-29T18:39:27.819Z,1019.23
2017-09-29T18:40:36.657Z,1019.25
2017-09-29T18:41:45.497Z,1019.24
2017-09-29T18:42:54.337Z,1019.23
2017-09-29T18:44:03.191Z,1019.26
2017-09-29T18:45:12.014Z,1019.2
2017-09-29T18:46:20.855Z,1019.28
2017-09-29T18:47:29.689Z,1019.27
2017-09-29T18:48:38.530Z,1019.2
2017-09-29T18:49:47.370Z,1019.23
2017-09-29T18:50:56.530Z,1019.22
2017-09-29T18:52:05.368Z,1019.23
2017-09-29T18:53:14.212Z,1019.26
2017-09-29T18:54:23.050Z,1019.2
2017-09-29T18:55:32.208Z,1019.19
2017-09-29T18:56:41.053Z,1019.22
2017-09-29T18:57:49.891Z,1019.18
2017-09-29T18:58:58.724Z,1019.19
2017-09-29T19:00:07.566Z,1019.12
2017-09-29T19:01:16.403Z,1019.2
2017-09-29T19:02:25.248Z,1019.15
2017-09-29T19:03:34.087Z,1019.18
2017-09-29T19:04:42.923Z,1019.21
2017-09-29T19:05:51.762Z,1019.18
2017-09-29T19:07:00.927Z,1019.15
2017-09-29T19:08:09.762Z,1019.14
2017-09-29T19:09:18.604Z,1019.12
2017-09-29T19:10:27.768Z,1019.16
2017-09-29T19:11:36.601Z,1019.12
2017-09-29T19:12:45.765Z,1019.12
2017-09-29T19:13:54.607Z,1019.17
2017-09-29T19:15:03.444Z,1019.1
2017-09-29T19:16:12.281Z,1019.07
2017-09-29T19:17:21.120Z,1019.06
2017-09-29T19:18:29.957Z,1019.1
2017-09-29T19:19:38.794Z,1019.07
2017-09-29T19:20:47.634Z,1019.07
2017-09-29T19:21:56.472Z,1019.06
2017-09-29T19:23:05.312Z,1019.03
2017-09-29T19:24:14.149Z,1019.01
2017-09-29T19:25:22.987Z,1019.06
2017-09-29T19:26:32.165Z,1019
2017-09-29T19:27:41.000Z,1019.01
2017-09-29T19:28:49.841Z,1019.01
2017-09-29T19:29:58.673Z,1018.97
2017-09-29T19:31:07.523Z,1018.97
2017-09-29T19:32:16.357Z,1018.99
2017-09-29T19:33:25.194Z,1019.01
2017-09-29T19:34:34.035Z,1018.99
2017-09-29T19:35:42.873Z,1018.95
2017-09-29T19:36:52.034Z,1019.08
2017-09-29T19:38:00.874Z,1019.08
2017-09-29T19:39:09.714Z,1019.09
2017-09-29T19:40:18.546Z,1019.1
2017-09-29T19:41:27.390Z,1019.12
2017-09-29T19:42:36.231Z,1019.07
2017-09-29T19:43:45.067Z,1019.06
2017-09-29T19:44:53.909Z,1019.06
2017-09-29T19:46:02.750Z,1019
2017-09-29T19:47:11.589Z,1019.04
2017-09-29T19:48:20.426Z,1019.05
2017-09-29T19:49:29.584Z,1019.06
2017-09-29T19:50:38.418Z,1019.01
2017-09-29T19:51:47.260Z,1019
2017-09-29T19:52:56.097Z,1018.96
2017-09-29T19:54:04.931Z,1018.98
2017-09-29T19:55:13.769Z,1018.94
2017-09-29T19:56:22.605Z,1018.96
2017-09-29T19:57:31.444Z,1018.93
2017-09-29T19:58:40.279Z,1018.94
2017-09-29T19:59:49.116Z,1018.96
2017-09-29T20:00:57.949Z,1018.9
2017-09-29T20:02:06.788Z,1018.93
2017-09-29T20:03:15.629Z,1018.97
2017-09-29T20:04:24.464Z,1018.95
2017-09-29T20:05:33.303Z,1018.9
2017-09-29T20:06:42.140Z,1018.95
2017-09-29T20:07:50.974Z,1018.93
2017-09-29T20:08:59.816Z,1018.91
2017-09-29T20:10:08.659Z,1018.88
2017-09-29T20:11:17.496Z,1018.95
2017-09-29T20:12:26.331Z,1018.88
2017-09-29T20:13:35.171Z,1018.87
2017-09-29T20:14:44.009Z,1018.87
2017-09-29T20:15:52.849Z,1018.87
2017-09-29T20:17:01.686Z,1018.87
2017-09-29T20:18:10.517Z,1018.9
2017-09-29T20:19:19.367Z,1018.9
2017-09-29T20:20:28.190Z,1018.9
2017-09-29T20:21:37.028Z,1018.87
2017-09-29T20:22:45.866Z,1018.87
2017-09-29T20:23:54.707Z,1018.94
2017-09-29T20:25:03.541Z,1018.94
2017-09-29T20:26:12.379Z,1018.88
2017-09-29T20:27:21.227Z,1018.92
2017-09-29T20:28:30.066Z,1018.93
2017-09-29T20:29:38.902Z,1018.93
2017-09-29T20:30:47.740Z,1018.92
2017-09-29T20:31:56.579Z,1018.88
2017-09-29T20:33:05.419Z,1018.84
2017-09-29T20:34:14.262Z,1018.86
2017-09-29T20:35:23.094Z,1018.83
2017-09-29T20:36:31.934Z,1018.84
2017-09-29T20:37:40.775Z,1018.83
2017-09-29T20:38:49.608Z,1018.82
2017-09-29T20:39:58.446Z,1018.82
2017-09-29T20:41:07.284Z,1018.8
2017-09-29T20:42:16.124Z,1018.77
2017-09-29T20:43:24.959Z,1018.79
2017-09-29T20:44:33.794Z,1018.76
2017-09-29T20:45:42.635Z,1018.78
2017-09-29T20:46:51.474Z,1018.73
2017-09-29T20:48:00.307Z,1018.75
2017-09-29T20:49:09.140Z,1018.78
2017-09-29T20:50:18.302Z,1018.74
2017-09-29T20:51:27.467Z,1018.69
2017-09-29T20:52:36.308Z,1018.7
2017-09-29T20:53:45.144Z,1018.65
2017-09-29T20:54:53.977Z,1018.68
2017-09-29T20:56:02.811Z,1018.63
2017-09-29T20:57:11.650Z,1018.64
2017-09-29T20:58:20.489Z,1018.64
2017-09-29T20:59:29.328Z,1018.62
2017-09-29T21:00:38.171Z,1018.64
2017-09-29T21:01:47.003Z,1018.63
2017-09-29T21:02:55.842Z,1018.6
2017-09-29T21:04:04.681Z,1018.59
2017-09-29T21:05:13.519Z,1018.64
2017-09-29T21:06:22.355Z,1018.61
2017-09-29T21:07:31.192Z,1018.63
2017-09-29T21:08:40.028Z,1018.58
2017-09-29T21:09:48.867Z,1018.59
2017-09-29T21:10:57.709Z,1018.67
2017-09-29T21:12:06.546Z,1018.58
2017-09-29T21:13:15.382Z,1018.61
2017-09-29T21:14:24.229Z,1018.6
2017-09-29T21:15:33.066Z,1018.57
2017-09-29T21:16:41.903Z,1018.58
2017-09-29T21:17:50.739Z,1018.52
2017-09-29T21:18:59.574Z,1018.54
2017-09-29T21:20:08.735Z,1018.55
2017-09-29T21:21:17.577Z,1018.52
2017-09-29T21:22:26.415Z,1018.51
2017-09-29T21:23:35.246Z,1018.54
2017-09-29T21:24:44.082Z,1018.51
2017-09-29T21:25:53.256Z,1018.47
2017-09-29T21:27:02.090Z,1018.43
2017-09-29T21:28:10.934Z,1018.47
2017-09-29T21:29:19.768Z,1018.44
2017-09-29T21:30:28.603Z,1018.4
2017-09-29T21:31:37.439Z,1018.35
2017-09-29T21:32:46.279Z,1018.36
2017-09-29T21:33:55.116Z,1018.36
2017-09-29T21:35:03.954Z,1018.31
2017-09-29T21:36:12.786Z,1018.34
2017-09-29T21:37:21.620Z,1018.34
2017-09-29T21:38:30.462Z,1018.3
2017-09-29T21:39:39.306Z,1018.33
2017-09-29T21:40:48.141Z,1018.32
2017-09-29T21:41:56.977Z,1018.28
2017-09-29T21:43:05.816Z,1018.24
2017-09-29T21:44:14.650Z,1018.28
2017-09-29T21:45:23.485Z,1018.22
2017-09-29T21:46:32.324Z,1018.18
2017-09-29T21:47:41.161Z,1018.23
2017-09-29T21:48:49.997Z,1018.16
2017-09-29T21:49:58.834Z,1018.18
2017-09-29T21:51:07.991Z,1018.18
2017-09-29T21:52:16.828Z,1018.19
2017-09-29T21:53:25.668Z,1018.16
2017-09-29T21:54:34.497Z,1018.17
2017-09-29T21:55:43.333Z,1018.17
2017-09-29T21:56:52.169Z,1018.14
2017-09-29T21:58:01.010Z,1018.12
2017-09-29T21:59:10.168Z,1018.13
2017-09-29T22:00:19.013Z,1018.13
2017-09-29T22:01:27.845Z,1018.15
2017-09-29T22:02:36.680Z,1018.13
2017-09-29T22:03:45.517Z,1018.09
2017-09-29T22:04:54.356Z,1018.07
2017-09-29T22:06:03.196Z,1018.04
2017-09-29T22:07:12.033Z,1017.99
2017-09-29T22:08:20.866Z,1018
2017-09-29T22:09:29.706Z,1017.97
2017-09-29T22:10:38.547Z,1017.94
2017-09-29T22:11:47.382Z,1017.95
2017-09-29T22:12:56.220Z,1017.85
2017-09-29T22:14:05.058Z,1017.85
2017-09-29T22:15:13.890Z,1017.84
2017-09-29T22:16:22.724Z,1017.83
2017-09-29T22:17:31.566Z,1017.81
2017-09-29T22:18:40.398Z,1017.81
2017-09-29T22:19:49.234Z,1017.82
2017-09-29T22:20:58.070Z,1017.83
2017-09-29T22:22:06.911Z,1017.81
2017-09-29T22:23:15.747Z,1017.8
2017-09-29T22:24:24.580Z,1017.82
2017-09-29T22:25:33.415Z,1017.78
2017-09-29T22:26:42.250Z,1017.75
2017-09-29T22:27:51.088Z,1017.78
2017-09-29T22:28:59.924Z,1017.75
2017-09-29T22:30:08.763Z,1017.78
2017-09-29T22:31:17.600Z,1017.73
2017-09-29T22:32:26.440Z,1017.73
2017-09-29T22:33:35.275Z,1017.79
2017-09-29T22:34:44.114Z,1017.75
2017-09-29T22:35:52.952Z,1017.78
2017-09-29T22:37:01.791Z,1017.77
2017-09-29T22:38:10.625Z,1017.77
2017-09-29T22:39:19.455Z,1017.79
2017-09-29T22:40:28.294Z,1017.71
2017-09-29T22:41:37.129Z,1017.73
2017-09-29T22:42:45.969Z,1017.74
2017-09-29T22:43:54.802Z,1017.71
2017-09-29T22:45:03.637Z,1017.71
2017-09-29T22:46:12.504Z,1017.73
2017-09-29T22:47:21.319Z,1017.7
2017-09-29T22:48:30.153Z,1017.7
2017-09-29T22:49:39.315Z,1017.65